sensor_id;sensor_type;location;lat;lon;timestamp;P1;durP1;ratioP1;P2;durP2;ratioP2
63567;SDS011;49715;42.386;20.434;2022-08-30T00:02:01;18.50;;;13.65;;
63567;SDS011;49715;42.386;20.434;2022-08-30T00:04:27;44.28;;;23.77;;
63567;SDS011;49715;42.386;20.434;2022-08-30T00:06:54;33.30;;;20.63;;
63567;SDS011;49715;42.386;20.434;2022-08-30T00:09:21;17.35;;;13.13;;
63567;SDS011;49715;42.386;20.434;2022-08-30T00:11:47;32.40;;;18.08;;
63567;SDS011;49715;42.386;20.434;2022-08-30T00:14:16;36.25;;;19.35;;
63567;SDS011;49715;42.386;20.434;2022-08-30T00:16:44;30.20;;;18.48;;
63567;SDS011;49715;42.386;20.434;2022-08-30T00:19:10;30.63;;;17.90;;
63567;SDS011;49715;42.386;20.434;2022-08-30T00:21:36;29.08;;;17.23;;
63567;SDS011;49715;42.386;20.434;2022-08-30T00:24:04;25.50;;;17.27;;
63567;SDS011;49715;42.386;20.434;2022-08-30T00:26:31;15.68;;;12.15;;
63567;SDS011;49715;42.386;20.434;2022-08-30T00:28:57;14.77;;;10.73;;
63567;SDS011;49715;42.386;20.434;2022-08-30T00:31:24;11.15;;;10.02;;
63567;SDS011;49715;42.386;20.434;2022-08-30T00:33:50;12.88;;;9.40;;
63567;SDS011;49715;42.386;20.434;2022-08-30T00:36:17;11.18;;;8.40;;
63567;SDS011;49715;42.386;20.434;2022-08-30T00:38:43;11.63;;;8.43;;
63567;SDS011;49715;42.386;20.434;2022-08-30T00:41:10;12.20;;;7.80;;
63567;SDS011;49715;42.386;20.434;2022-08-30T00:43:36;9.55;;;8.10;;
63567;SDS011;49715;42.386;20.434;2022-08-30T00:46:04;11.23;;;8.77;;
63567;SDS011;49715;42.386;20.434;2022-08-30T00:48:33;11.65;;;9.40;;
63567;SDS011;49715;42.386;20.434;2022-08-30T00:51:04;11.00;;;9.80;;
63567;SDS011;49715;42.386;20.434;2022-08-30T00:53:35;12.10;;;10.00;;
63567;SDS011;49715;42.386;20.434;2022-08-30T00:56:04;13.05;;;10.00;;
63567;SDS011;49715;42.386;20.434;2022-08-30T00:58:33;12.75;;;10.13;;
63567;SDS011;49715;42.386;20.434;2022-08-30T01:01:02;14.02;;;9.98;;
63567;SDS011;49715;42.386;20.434;2022-08-30T01:03:31;14.55;;;9.98;;
63567;SDS011;49715;42.386;20.434;2022-08-30T01:05:59;15.25;;;10.30;;
63567;SDS011;49715;42.386;20.434;2022-08-30T01:08:27;13.25;;;10.48;;
63567;SDS011;49715;42.386;20.434;2022-08-30T01:10:54;13.13;;;10.25;;
63567;SDS011;49715;42.386;20.434;2022-08-30T01:13:22;13.43;;;10.10;;
63567;SDS011;49715;42.386;20.434;2022-08-30T01:15:51;16.00;;;10.98;;
63567;SDS011;49715;42.386;20.434;2022-08-30T01:18:19;15.07;;;10.73;;
63567;SDS011;49715;42.386;20.434;2022-08-30T01:23:50;19.00;;;12.15;;
63567;SDS011;49715;42.386;20.434;2022-08-30T01:26:21;13.50;;;11.70;;
63567;SDS011;49715;42.386;20.434;2022-08-30T01:28:49;14.05;;;12.27;;
63567;SDS011;49715;42.386;20.434;2022-08-30T01:31:19;15.95;;;12.32;;
63567;SDS011;49715;42.386;20.434;2022-08-30T01:33:46;14.90;;;12.48;;
63567;SDS011;49715;42.386;20.434;2022-08-30T01:36:13;16.48;;;11.93;;
63567;SDS011;49715;42.386;20.434;2022-08-30T01:38:51;13.50;;;11.63;;
63567;SDS011;49715;42.386;20.434;2022-08-30T01:41:23;14.65;;;11.18;;
63567;SDS011;49715;42.386;20.434;2022-08-30T01:43:53;16.33;;;12.05;;
63567;SDS011;49715;42.386;20.434;2022-08-30T01:46:22;12.93;;;11.52;;
63567;SDS011;49715;42.386;20.434;2022-08-30T01:48:52;11.65;;;10.10;;
63567;SDS011;49715;42.386;20.434;2022-08-30T01:51:20;16.63;;;11.18;;
63567;SDS011;49715;42.386;20.434;2022-08-30T01:53:48;12.77;;;10.50;;
63567;SDS011;49715;42.386;20.434;2022-08-30T02:03:40;14.27;;;10.63;;
63567;SDS011;49715;42.386;20.434;2022-08-30T02:06:09;11.63;;;10.43;;
63567;SDS011;49715;42.386;20.434;2022-08-30T02:08:38;14.43;;;10.85;;
63567;SDS011;49715;42.386;20.434;2022-08-30T02:11:06;19.02;;;11.98;;
63567;SDS011;49715;42.386;20.434;2022-08-30T02:13:35;16.08;;;13.60;;
63567;SDS011;49715;42.386;20.434;2022-08-30T02:16:04;22.45;;;15.63;;
63567;SDS011;49715;42.386;20.434;2022-08-30T02:18:33;24.35;;;15.38;;
63567;SDS011;49715;42.386;20.434;2022-08-30T02:21:01;36.55;;;20.48;;
63567;SDS011;49715;42.386;20.434;2022-08-30T02:23:29;34.63;;;17.75;;
63567;SDS011;49715;42.386;20.434;2022-08-30T02:25:56;46.67;;;23.25;;
63567;SDS011;49715;42.386;20.434;2022-08-30T02:28:24;42.47;;;19.50;;
63567;SDS011;49715;42.386;20.434;2022-08-30T02:33:17;30.17;;;17.52;;
63567;SDS011;49715;42.386;20.434;2022-08-30T02:35:44;31.60;;;18.38;;
63567;SDS011;49715;42.386;20.434;2022-08-30T02:38:11;25.52;;;18.08;;
63567;SDS011;49715;42.386;20.434;2022-08-30T02:40:38;18.92;;;13.68;;
63567;SDS011;49715;42.386;20.434;2022-08-30T02:43:04;17.98;;;13.35;;
63567;SDS011;49715;42.386;20.434;2022-08-30T02:45:32;24.98;;;16.48;;
63567;SDS011;49715;42.386;20.434;2022-08-30T02:47:58;24.30;;;16.25;;
63567;SDS011;49715;42.386;20.434;2022-08-30T02:50:25;24.23;;;15.80;;
63567;SDS011;49715;42.386;20.434;2022-08-30T02:52:51;23.80;;;15.20;;
63567;SDS011;49715;42.386;20.434;2022-08-30T02:55:18;25.73;;;14.52;;
63567;SDS011;49715;42.386;20.434;2022-08-30T02:57:45;22.65;;;15.27;;
63567;SDS011;49715;42.386;20.434;2022-08-30T03:00:14;21.23;;;14.20;;
63567;SDS011;49715;42.386;20.434;2022-08-30T03:02:43;23.38;;;14.65;;
63567;SDS011;49715;42.386;20.434;2022-08-30T03:05:10;17.10;;;12.65;;
63567;SDS011;49715;42.386;20.434;2022-08-30T03:07:38;13.73;;;11.10;;
63567;SDS011;49715;42.386;20.434;2022-08-30T03:10:06;12.13;;;9.88;;
63567;SDS011;49715;42.386;20.434;2022-08-30T03:12:35;12.13;;;10.18;;
63567;SDS011;49715;42.386;20.434;2022-08-30T03:15:01;17.88;;;11.00;;
63567;SDS011;49715;42.386;20.434;2022-08-30T03:17:30;13.00;;;10.00;;
63567;SDS011;49715;42.386;20.434;2022-08-30T03:19:57;12.32;;;10.57;;
63567;SDS011;49715;42.386;20.434;2022-08-30T03:22:26;11.95;;;9.93;;
63567;SDS011;49715;42.386;20.434;2022-08-30T03:24:54;14.30;;;9.95;;
63567;SDS011;49715;42.386;20.434;2022-08-30T03:27:25;10.85;;;9.57;;
63567;SDS011;49715;42.386;20.434;2022-08-30T03:29:53;10.60;;;9.50;;
63567;SDS011;49715;42.386;20.434;2022-08-30T03:32:20;10.98;;;9.05;;
63567;SDS011;49715;42.386;20.434;2022-08-30T03:34:47;11.68;;;8.90;;
63567;SDS011;49715;42.386;20.434;2022-08-30T03:37:13;10.38;;;8.38;;
63567;SDS011;49715;42.386;20.434;2022-08-30T03:39:40;10.57;;;8.52;;
63567;SDS011;49715;42.386;20.434;2022-08-30T03:42:06;11.52;;;8.30;;
63567;SDS011;49715;42.386;20.434;2022-08-30T03:44:32;10.25;;;8.23;;
63567;SDS011;49715;42.386;20.434;2022-08-30T03:46:59;10.63;;;8.23;;
63567;SDS011;49715;42.386;20.434;2022-08-30T03:49:25;12.68;;;8.80;;
63567;SDS011;49715;42.386;20.434;2022-08-30T03:51:52;9.35;;;8.38;;
63567;SDS011;49715;42.386;20.434;2022-08-30T03:54:18;11.23;;;8.60;;
63567;SDS011;49715;42.386;20.434;2022-08-30T03:56:45;13.27;;;8.70;;
63567;SDS011;49715;42.386;20.434;2022-08-30T03:59:11;13.27;;;8.65;;
63567;SDS011;49715;42.386;20.434;2022-08-30T04:01:38;9.95;;;7.82;;
63567;SDS011;49715;42.386;20.434;2022-08-30T04:04:07;11.43;;;8.48;;
63567;SDS011;49715;42.386;20.434;2022-08-30T04:06:34;11.27;;;8.20;;
63567;SDS011;49715;42.386;20.434;2022-08-30T04:09:00;9.68;;;7.65;;
63567;SDS011;49715;42.386;20.434;2022-08-30T04:11:27;10.00;;;8.02;;
63567;SDS011;49715;42.386;20.434;2022-08-30T04:13:54;9.73;;;7.28;;
63567;SDS011;49715;42.386;20.434;2022-08-30T04:16:23;10.18;;;7.38;;
63567;SDS011;49715;42.386;20.434;2022-08-30T04:18:51;11.40;;;7.43;;
63567;SDS011;49715;42.386;20.434;2022-08-30T04:21:17;9.68;;;7.65;;
63567;SDS011;49715;42.386;20.434;2022-08-30T04:23:44;11.23;;;7.63;;
63567;SDS011;49715;42.386;20.434;2022-08-30T04:26:12;12.27;;;7.65;;
63567;SDS011;49715;42.386;20.434;2022-08-30T04:28:38;8.75;;;7.68;;
63567;SDS011;49715;42.386;20.434;2022-08-30T04:31:09;10.75;;;8.70;;
63567;SDS011;49715;42.386;20.434;2022-08-30T04:33:37;12.57;;;8.90;;
63567;SDS011;49715;42.386;20.434;2022-08-30T04:36:05;13.88;;;8.70;;
63567;SDS011;49715;42.386;20.434;2022-08-30T04:38:36;12.02;;;8.90;;
63567;SDS011;49715;42.386;20.434;2022-08-30T04:41:08;14.30;;;8.55;;
63567;SDS011;49715;42.386;20.434;2022-08-30T04:43:37;14.00;;;9.55;;
63567;SDS011;49715;42.386;20.434;2022-08-30T04:46:05;11.80;;;9.45;;
63567;SDS011;49715;42.386;20.434;2022-08-30T04:48:34;13.73;;;9.98;;
63567;SDS011;49715;42.386;20.434;2022-08-30T04:51:05;12.00;;;10.48;;
63567;SDS011;49715;42.386;20.434;2022-08-30T04:53:33;14.40;;;10.43;;
63567;SDS011;49715;42.386;20.434;2022-08-30T04:56:00;11.55;;;9.82;;
63567;SDS011;49715;42.386;20.434;2022-08-30T04:58:27;12.27;;;10.20;;
63567;SDS011;49715;42.386;20.434;2022-08-30T05:00:54;16.15;;;10.90;;
63567;SDS011;49715;42.386;20.434;2022-08-30T05:03:20;13.13;;;10.02;;
63567;SDS011;49715;42.386;20.434;2022-08-30T05:05:50;15.23;;;10.60;;
63567;SDS011;49715;42.386;20.434;2022-08-30T05:08:17;18.23;;;11.00;;
63567;SDS011;49715;42.386;20.434;2022-08-30T05:10:47;13.50;;;10.73;;
63567;SDS011;49715;42.386;20.434;2022-08-30T05:13:16;14.93;;;11.07;;
63567;SDS011;49715;42.386;20.434;2022-08-30T05:15:45;15.70;;;11.57;;
63567;SDS011;49715;42.386;20.434;2022-08-30T05:18:13;13.52;;;12.10;;
63567;SDS011;49715;42.386;20.434;2022-08-30T05:20:44;16.50;;;12.50;;
63567;SDS011;49715;42.386;20.434;2022-08-30T05:23:11;16.42;;;13.30;;
63567;SDS011;49715;42.386;20.434;2022-08-30T05:25:38;18.05;;;12.02;;
63567;SDS011;49715;42.386;20.434;2022-08-30T05:28:06;18.42;;;13.45;;
63567;SDS011;49715;42.386;20.434;2022-08-30T05:30:34;14.32;;;9.55;;
63567;SDS011;49715;42.386;20.434;2022-08-30T05:33:01;12.27;;;10.13;;
63567;SDS011;49715;42.386;20.434;2022-08-30T05:35:28;12.68;;;9.57;;
63567;SDS011;49715;42.386;20.434;2022-08-30T05:37:56;13.48;;;9.50;;
63567;SDS011;49715;42.386;20.434;2022-08-30T05:40:22;13.18;;;9.48;;
63567;SDS011;49715;42.386;20.434;2022-08-30T05:42:49;16.38;;;9.73;;
63567;SDS011;49715;42.386;20.434;2022-08-30T05:45:16;16.55;;;9.43;;
63567;SDS011;49715;42.386;20.434;2022-08-30T05:47:42;13.27;;;9.48;;
63567;SDS011;49715;42.386;20.434;2022-08-30T05:50:09;17.05;;;9.52;;
63567;SDS011;49715;42.386;20.434;2022-08-30T05:52:39;12.43;;;9.73;;
63567;SDS011;49715;42.386;20.434;2022-08-30T05:55:08;12.25;;;10.10;;
63567;SDS011;49715;42.386;20.434;2022-08-30T05:57:37;14.55;;;9.82;;
63567;SDS011;49715;42.386;20.434;2022-08-30T06:00:07;13.60;;;9.52;;
63567;SDS011;49715;42.386;20.434;2022-08-30T06:02:39;16.00;;;10.68;;
63567;SDS011;49715;42.386;20.434;2022-08-30T06:05:07;14.88;;;9.77;;
63567;SDS011;49715;42.386;20.434;2022-08-30T06:07:34;16.38;;;9.60;;
63567;SDS011;49715;42.386;20.434;2022-08-30T06:10:01;14.45;;;10.27;;
63567;SDS011;49715;42.386;20.434;2022-08-30T06:12:28;21.88;;;10.48;;
63567;SDS011;49715;42.386;20.434;2022-08-30T06:14:55;22.70;;;10.90;;
63567;SDS011;49715;42.386;20.434;2022-08-30T06:17:21;16.23;;;11.10;;
63567;SDS011;49715;42.386;20.434;2022-08-30T06:19:48;15.60;;;10.23;;
63567;SDS011;49715;42.386;20.434;2022-08-30T06:22:15;18.48;;;11.85;;
63567;SDS011;49715;42.386;20.434;2022-08-30T06:24:41;19.50;;;10.93;;
63567;SDS011;49715;42.386;20.434;2022-08-30T06:27:08;17.38;;;11.55;;
63567;SDS011;49715;42.386;20.434;2022-08-30T06:29:35;13.18;;;10.93;;
63567;SDS011;49715;42.386;20.434;2022-08-30T06:32:03;17.48;;;11.68;;
63567;SDS011;49715;42.386;20.434;2022-08-30T06:34:30;19.05;;;11.70;;
63567;SDS011;49715;42.386;20.434;2022-08-30T06:36:57;15.73;;;11.13;;
63567;SDS011;49715;42.386;20.434;2022-08-30T06:39:24;20.13;;;13.85;;
63567;SDS011;49715;42.386;20.434;2022-08-30T06:41:51;17.08;;;11.70;;
63567;SDS011;49715;42.386;20.434;2022-08-30T06:44:26;19.45;;;14.43;;
63567;SDS011;49715;42.386;20.434;2022-08-30T06:46:53;15.00;;;12.07;;
63567;SDS011;49715;42.386;20.434;2022-08-30T06:49:20;21.23;;;14.32;;
63567;SDS011;49715;42.386;20.434;2022-08-30T06:51:46;16.77;;;11.73;;
63567;SDS011;49715;42.386;20.434;2022-08-30T06:54:13;13.52;;;11.07;;
63567;SDS011;49715;42.386;20.434;2022-08-30T06:56:40;13.15;;;10.75;;
63567;SDS011;49715;42.386;20.434;2022-08-30T06:59:07;15.07;;;11.18;;
63567;SDS011;49715;42.386;20.434;2022-08-30T07:01:33;17.58;;;12.90;;
63567;SDS011;49715;42.386;20.434;2022-08-30T07:03:59;16.50;;;11.00;;
63567;SDS011;49715;42.386;20.434;2022-08-30T07:06:27;12.88;;;11.25;;
63567;SDS011;49715;42.386;20.434;2022-08-30T07:08:55;14.93;;;12.02;;
63567;SDS011;49715;42.386;20.434;2022-08-30T07:11:34;13.00;;;11.02;;
63567;SDS011;49715;42.386;20.434;2022-08-30T07:14:02;13.93;;;10.60;;
63567;SDS011;49715;42.386;20.434;2022-08-30T07:16:31;12.60;;;9.38;;
63567;SDS011;49715;42.386;20.434;2022-08-30T07:18:58;12.48;;;9.70;;
63567;SDS011;49715;42.386;20.434;2022-08-30T07:21:31;13.02;;;9.23;;
63567;SDS011;49715;42.386;20.434;2022-08-30T07:24:02;14.60;;;10.00;;
63567;SDS011;49715;42.386;20.434;2022-08-30T07:26:31;15.27;;;9.98;;
63567;SDS011;49715;42.386;20.434;2022-08-30T07:29:03;18.33;;;10.20;;
63567;SDS011;49715;42.386;20.434;2022-08-30T07:31:31;14.82;;;10.50;;
63567;SDS011;49715;42.386;20.434;2022-08-30T07:33:59;11.75;;;10.02;;
63567;SDS011;49715;42.386;20.434;2022-08-30T07:36:26;16.45;;;10.25;;
63567;SDS011;49715;42.386;20.434;2022-08-30T07:38:53;15.75;;;9.98;;
63567;SDS011;49715;42.386;20.434;2022-08-30T07:43:54;17.73;;;10.40;;
63567;SDS011;49715;42.386;20.434;2022-08-30T07:46:22;13.65;;;10.32;;
63567;SDS011;49715;42.386;20.434;2022-08-30T07:48:50;14.27;;;9.50;;
63567;SDS011;49715;42.386;20.434;2022-08-30T07:51:21;16.10;;;11.00;;
63567;SDS011;49715;42.386;20.434;2022-08-30T07:53:51;15.38;;;10.63;;
63567;SDS011;49715;42.386;20.434;2022-08-30T07:56:18;12.60;;;10.38;;
63567;SDS011;49715;42.386;20.434;2022-08-30T07:58:46;13.90;;;11.60;;
63567;SDS011;49715;42.386;20.434;2022-08-30T08:01:13;13.52;;;10.48;;
63567;SDS011;49715;42.386;20.434;2022-08-30T08:03:42;11.57;;;9.27;;
63567;SDS011;49715;42.386;20.434;2022-08-30T08:06:09;14.02;;;9.57;;
63567;SDS011;49715;42.386;20.434;2022-08-30T08:08:38;16.70;;;11.30;;
63567;SDS011;49715;42.386;20.434;2022-08-30T08:11:12;15.48;;;8.80;;
63567;SDS011;49715;42.386;20.434;2022-08-30T08:13:44;14.82;;;8.95;;
63567;SDS011;49715;42.386;20.434;2022-08-30T08:19:16;21.40;;;11.13;;
63567;SDS011;49715;42.386;20.434;2022-08-30T08:21:45;13.60;;;10.27;;
63567;SDS011;49715;42.386;20.434;2022-08-30T08:24:14;12.93;;;8.13;;
63567;SDS011;49715;42.386;20.434;2022-08-30T08:26:44;15.15;;;7.50;;
63567;SDS011;49715;42.386;20.434;2022-08-30T08:29:10;11.35;;;7.20;;
63567;SDS011;49715;42.386;20.434;2022-08-30T08:34:04;12.20;;;7.07;;
63567;SDS011;49715;42.386;20.434;2022-08-30T08:36:31;9.85;;;6.68;;
63567;SDS011;49715;42.386;20.434;2022-08-30T08:39:06;10.27;;;7.50;;
63567;SDS011;49715;42.386;20.434;2022-08-30T08:46:49;10.82;;;7.10;;
63567;SDS011;49715;42.386;20.434;2022-08-30T08:49:16;11.63;;;7.72;;
63567;SDS011;49715;42.386;20.434;2022-08-30T08:51:43;10.60;;;6.95;;
63567;SDS011;49715;42.386;20.434;2022-08-30T08:54:33;10.98;;;6.60;;
63567;SDS011;49715;42.386;20.434;2022-08-30T08:57:05;8.80;;;6.32;;
63567;SDS011;49715;42.386;20.434;2022-08-30T08:59:31;9.57;;;6.57;;
63567;SDS011;49715;42.386;20.434;2022-08-30T09:01:59;9.10;;;6.35;;
63567;SDS011;49715;42.386;20.434;2022-08-30T09:04:30;12.50;;;6.47;;
63567;SDS011;49715;42.386;20.434;2022-08-30T09:07:05;8.45;;;5.82;;
63567;SDS011;49715;42.386;20.434;2022-08-30T09:09:53;11.48;;;5.90;;
63567;SDS011;49715;42.386;20.434;2022-08-30T09:12:19;8.45;;;5.95;;
63567;SDS011;49715;42.386;20.434;2022-08-30T09:17:18;8.98;;;5.97;;
63567;SDS011;49715;42.386;20.434;2022-08-30T09:22:35;11.63;;;6.72;;
63567;SDS011;49715;42.386;20.434;2022-08-30T09:27:35;12.75;;;6.43;;
63567;SDS011;49715;42.386;20.434;2022-08-30T09:32:51;10.65;;;6.85;;
63567;SDS011;49715;42.386;20.434;2022-08-30T09:35:21;9.00;;;6.03;;
63567;SDS011;49715;42.386;20.434;2022-08-30T09:38:07;10.40;;;6.15;;
63567;SDS011;49715;42.386;20.434;2022-08-30T09:40:37;8.55;;;4.90;;
63567;SDS011;49715;42.386;20.434;2022-08-30T09:43:06;11.55;;;5.60;;
63567;SDS011;49715;42.386;20.434;2022-08-30T09:46:06;10.07;;;5.88;;
63567;SDS011;49715;42.386;20.434;2022-08-30T09:48:38;9.60;;;6.35;;
63567;SDS011;49715;42.386;20.434;2022-08-30T09:53:43;10.95;;;6.85;;
63567;SDS011;49715;42.386;20.434;2022-08-30T09:56:50;8.45;;;5.70;;
63567;SDS011;49715;42.386;20.434;2022-08-30T10:15:49;6.10;;;3.65;;
63567;SDS011;49715;42.386;20.434;2022-08-30T12:37:37;6.00;;;3.87;;
63567;SDS011;49715;42.386;20.434;2022-08-30T12:40:09;9.05;;;3.53;;
63567;SDS011;49715;42.386;20.434;2022-08-30T12:42:50;7.00;;;3.78;;
63567;SDS011;49715;42.386;20.434;2022-08-30T12:45:20;6.30;;;4.00;;
63567;SDS011;49715;42.386;20.434;2022-08-30T12:50:36;9.40;;;4.50;;
63567;SDS011;49715;42.386;20.434;2022-08-30T12:53:11;7.45;;;4.03;;
63567;SDS011;49715;42.386;20.434;2022-08-30T12:55:50;6.63;;;4.13;;
63567;SDS011;49715;42.386;20.434;2022-08-30T12:58:33;8.32;;;4.30;;
63567;SDS011;49715;42.386;20.434;2022-08-30T13:01:17;4.63;;;3.78;;
63567;SDS011;49715;42.386;20.434;2022-08-30T13:09:28;9.15;;;3.95;;
63567;SDS011;49715;42.386;20.434;2022-08-30T13:11:56;5.38;;;4.00;;
63567;SDS011;49715;42.386;20.434;2022-08-30T13:14:29;7.57;;;4.05;;
63567;SDS011;49715;42.386;20.434;2022-08-30T13:19:59;6.28;;;4.00;;
63567;SDS011;49715;42.386;20.434;2022-08-30T13:22:34;6.93;;;3.60;;
63567;SDS011;49715;42.386;20.434;2022-08-30T13:25:03;8.25;;;3.67;;
63567;SDS011;49715;42.386;20.434;2022-08-30T13:27:32;5.28;;;3.30;;
63567;SDS011;49715;42.386;20.434;2022-08-30T13:30:07;4.85;;;3.63;;
63567;SDS011;49715;42.386;20.434;2022-08-30T13:32:36;7.25;;;3.60;;
63567;SDS011;49715;42.386;20.434;2022-08-30T13:35:04;5.68;;;3.20;;
63567;SDS011;49715;42.386;20.434;2022-08-30T13:37:31;5.88;;;3.70;;
63567;SDS011;49715;42.386;20.434;2022-08-30T13:39:59;7.28;;;3.78;;
63567;SDS011;49715;42.386;20.434;2022-08-30T13:42:26;5.70;;;3.78;;
63567;SDS011;49715;42.386;20.434;2022-08-30T13:44:52;4.70;;;3.70;;
63567;SDS011;49715;42.386;20.434;2022-08-30T13:47:19;7.60;;;3.80;;
63567;SDS011;49715;42.386;20.434;2022-08-30T13:49:46;7.25;;;3.85;;
63567;SDS011;49715;42.386;20.434;2022-08-30T13:52:17;5.38;;;4.18;;
63567;SDS011;49715;42.386;20.434;2022-08-30T13:54:49;6.72;;;4.15;;
63567;SDS011;49715;42.386;20.434;2022-08-30T13:57:18;6.28;;;4.07;;
63567;SDS011;49715;42.386;20.434;2022-08-30T13:59:48;8.35;;;3.88;;
63567;SDS011;49715;42.386;20.434;2022-08-30T14:02:14;6.38;;;3.97;;
63567;SDS011;49715;42.386;20.434;2022-08-30T14:04:40;9.93;;;4.82;;
63567;SDS011;49715;42.386;20.434;2022-08-30T14:07:07;6.15;;;4.20;;
63567;SDS011;49715;42.386;20.434;2022-08-30T14:09:34;8.32;;;4.72;;
63567;SDS011;49715;42.386;20.434;2022-08-30T14:12:02;9.50;;;4.25;;
63567;SDS011;49715;42.386;20.434;2022-08-30T14:14:28;9.45;;;4.40;;
63567;SDS011;49715;42.386;20.434;2022-08-30T14:16:55;5.85;;;4.07;;
63567;SDS011;49715;42.386;20.434;2022-08-30T14:19:21;5.65;;;4.15;;
63567;SDS011;49715;42.386;20.434;2022-08-30T14:21:49;7.25;;;4.55;;
63567;SDS011;49715;42.386;20.434;2022-08-30T14:24:16;6.95;;;4.20;;
63567;SDS011;49715;42.386;20.434;2022-08-30T14:26:45;6.13;;;4.25;;
63567;SDS011;49715;42.386;20.434;2022-08-30T14:29:20;7.47;;;4.22;;
63567;SDS011;49715;42.386;20.434;2022-08-30T14:31:49;7.20;;;4.13;;
63567;SDS011;49715;42.386;20.434;2022-08-30T14:34:16;6.97;;;4.20;;
63567;SDS011;49715;42.386;20.434;2022-08-30T14:36:43;6.60;;;4.15;;
63567;SDS011;49715;42.386;20.434;2022-08-30T14:39:12;9.05;;;4.32;;
63567;SDS011;49715;42.386;20.434;2022-08-30T14:41:44;10.05;;;4.43;;
63567;SDS011;49715;42.386;20.434;2022-08-30T14:44:13;5.97;;;4.00;;
63567;SDS011;49715;42.386;20.434;2022-08-30T14:46:41;7.07;;;4.30;;
63567;SDS011;49715;42.386;20.434;2022-08-30T14:49:10;9.15;;;4.03;;
63567;SDS011;49715;42.386;20.434;2022-08-30T14:51:37;4.43;;;3.97;;
63567;SDS011;49715;42.386;20.434;2022-08-30T14:54:04;7.10;;;4.55;;
63567;SDS011;49715;42.386;20.434;2022-08-30T14:56:31;5.97;;;4.10;;
63567;SDS011;49715;42.386;20.434;2022-08-30T14:58:59;8.32;;;4.15;;
63567;SDS011;49715;42.386;20.434;2022-08-30T15:01:28;5.57;;;3.97;;
63567;SDS011;49715;42.386;20.434;2022-08-30T15:03:55;7.53;;;4.82;;
63567;SDS011;49715;42.386;20.434;2022-08-30T15:06:22;8.98;;;4.22;;
63567;SDS011;49715;42.386;20.434;2022-08-30T15:08:51;5.10;;;3.85;;
63567;SDS011;49715;42.386;20.434;2022-08-30T15:11:18;9.10;;;4.30;;
63567;SDS011;49715;42.386;20.434;2022-08-30T15:13:47;8.77;;;4.40;;
63567;SDS011;49715;42.386;20.434;2022-08-30T15:16:16;5.93;;;4.07;;
63567;SDS011;49715;42.386;20.434;2022-08-30T15:18:46;8.38;;;4.40;;
63567;SDS011;49715;42.386;20.434;2022-08-30T15:21:13;8.07;;;4.25;;
63567;SDS011;49715;42.386;20.434;2022-08-30T15:23:39;7.93;;;4.20;;
63567;SDS011;49715;42.386;20.434;2022-08-30T15:26:07;10.13;;;4.57;;
63567;SDS011;49715;42.386;20.434;2022-08-30T15:28:34;5.55;;;4.40;;
63567;SDS011;49715;42.386;20.434;2022-08-30T15:31:00;9.38;;;4.70;;
63567;SDS011;49715;42.386;20.434;2022-08-30T15:33:27;11.02;;;5.15;;
63567;SDS011;49715;42.386;20.434;2022-08-30T15:35:53;8.80;;;5.05;;
63567;SDS011;49715;42.386;20.434;2022-08-30T15:38:20;10.25;;;5.47;;
63567;SDS011;49715;42.386;20.434;2022-08-30T15:40:47;6.78;;;4.70;;
63567;SDS011;49715;42.386;20.434;2022-08-30T15:43:15;8.15;;;5.30;;
63567;SDS011;49715;42.386;20.434;2022-08-30T15:45:41;9.02;;;5.10;;
63567;SDS011;49715;42.386;20.434;2022-08-30T15:48:08;8.75;;;4.80;;
63567;SDS011;49715;42.386;20.434;2022-08-30T15:50:34;5.53;;;4.47;;
63567;SDS011;49715;42.386;20.434;2022-08-30T15:53:02;8.68;;;5.00;;
63567;SDS011;49715;42.386;20.434;2022-08-30T15:55:29;9.70;;;4.50;;
63567;SDS011;49715;42.386;20.434;2022-08-30T15:57:55;9.55;;;4.78;;
63567;SDS011;49715;42.386;20.434;2022-08-30T16:00:21;5.95;;;4.65;;
63567;SDS011;49715;42.386;20.434;2022-08-30T16:02:48;8.05;;;5.28;;
63567;SDS011;49715;42.386;20.434;2022-08-30T16:05:16;9.02;;;5.65;;
63567;SDS011;49715;42.386;20.434;2022-08-30T18:39:18;8.90;;;6.93;;
63567;SDS011;49715;42.386;20.434;2022-08-30T18:41:47;10.50;;;6.93;;
63567;SDS011;49715;42.386;20.434;2022-08-30T18:44:15;11.60;;;7.15;;
63567;SDS011;49715;42.386;20.434;2022-08-30T18:46:42;7.85;;;6.70;;
63567;SDS011;49715;42.386;20.434;2022-08-30T18:49:08;13.15;;;7.10;;
63567;SDS011;49715;42.386;20.434;2022-08-30T18:51:35;11.77;;;7.63;;
63567;SDS011;49715;42.386;20.434;2022-08-30T18:54:01;9.63;;;8.10;;
63567;SDS011;49715;42.386;20.434;2022-08-30T18:56:30;14.63;;;7.93;;
63567;SDS011;49715;42.386;20.434;2022-08-30T18:58:56;11.02;;;8.07;;
63567;SDS011;49715;42.386;20.434;2022-08-30T19:01:26;9.70;;;7.70;;
63567;SDS011;49715;42.386;20.434;2022-08-30T19:03:53;10.48;;;7.95;;
63567;SDS011;49715;42.386;20.434;2022-08-30T19:06:19;10.85;;;7.68;;
63567;SDS011;49715;42.386;20.434;2022-08-30T19:08:47;13.68;;;7.97;;
63567;SDS011;49715;42.386;20.434;2022-08-30T19:11:13;16.17;;;9.00;;
63567;SDS011;49715;42.386;20.434;2022-08-30T19:13:40;12.10;;;8.23;;
63567;SDS011;49715;42.386;20.434;2022-08-30T19:16:07;13.15;;;6.93;;
63567;SDS011;49715;42.386;20.434;2022-08-30T19:18:33;13.77;;;8.25;;
63567;SDS011;49715;42.386;20.434;2022-08-30T19:21:01;9.75;;;7.55;;
63567;SDS011;49715;42.386;20.434;2022-08-30T19:23:29;9.32;;;7.28;;
63567;SDS011;49715;42.386;20.434;2022-08-30T19:25:55;12.98;;;7.07;;
63567;SDS011;49715;42.386;20.434;2022-08-30T19:28:23;9.95;;;7.93;;
63567;SDS011;49715;42.386;20.434;2022-08-30T19:30:50;10.70;;;7.93;;
63567;SDS011;49715;42.386;20.434;2022-08-30T19:33:17;12.95;;;8.32;;
63567;SDS011;49715;42.386;20.434;2022-08-30T19:35:44;10.25;;;7.38;;
63567;SDS011;49715;42.386;20.434;2022-08-30T19:38:11;11.43;;;7.10;;
63567;SDS011;49715;42.386;20.434;2022-08-30T19:40:38;8.25;;;6.85;;
63567;SDS011;49715;42.386;20.434;2022-08-30T19:43:04;10.98;;;7.50;;
63567;SDS011;49715;42.386;20.434;2022-08-30T19:47:58;8.52;;;7.45;;
63567;SDS011;49715;42.386;20.434;2022-08-30T19:50:25;13.80;;;8.38;;
63567;SDS011;49715;42.386;20.434;2022-08-30T19:52:51;8.73;;;7.57;;
63567;SDS011;49715;42.386;20.434;2022-08-30T19:55:18;15.55;;;7.93;;
63567;SDS011;49715;42.386;20.434;2022-08-30T19:57:44;10.77;;;8.13;;
63567;SDS011;49715;42.386;20.434;2022-08-30T20:00:11;11.25;;;8.23;;
63567;SDS011;49715;42.386;20.434;2022-08-30T20:02:38;14.98;;;8.63;;
63567;SDS011;49715;42.386;20.434;2022-08-30T20:05:06;11.60;;;8.85;;
63567;SDS011;49715;42.386;20.434;2022-08-30T20:07:33;10.57;;;8.13;;
63567;SDS011;49715;42.386;20.434;2022-08-30T20:10:05;12.38;;;8.77;;
63567;SDS011;49715;42.386;20.434;2022-08-30T20:12:34;12.80;;;9.07;;
63567;SDS011;49715;42.386;20.434;2022-08-30T20:17:28;11.82;;;8.40;;
63567;SDS011;49715;42.386;20.434;2022-08-30T20:19:55;12.25;;;8.73;;
63567;SDS011;49715;42.386;20.434;2022-08-30T20:22:21;9.80;;;8.60;;
63567;SDS011;49715;42.386;20.434;2022-08-30T20:24:47;11.88;;;8.95;;
63567;SDS011;49715;42.386;20.434;2022-08-30T20:27:14;11.38;;;8.70;;
63567;SDS011;49715;42.386;20.434;2022-08-30T20:29:40;10.35;;;9.18;;
63567;SDS011;49715;42.386;20.434;2022-08-30T20:32:07;12.80;;;8.23;;